createdAt,value
2019-02-14T00:01:42.047Z,11.27
2019-02-14T00:04:23.217Z,11.50
2019-02-14T00:07:03.916Z,11.97
2019-02-14T00:09:44.913Z,11.83
2019-02-14T00:12:25.538Z,11.50
2019-02-14T00:15:06.606Z,12.60
2019-02-14T00:17:47.614Z,12.20
2019-02-14T00:20:28.055Z,12.53
2019-02-14T00:23:08.773Z,11.77
2019-02-14T00:25:49.350Z,12.27
2019-02-14T00:28:29.950Z,12.30
2019-02-14T00:31:10.868Z,12.00
2019-02-14T00:33:51.678Z,12.27
2019-02-14T00:36:32.343Z,11.53
2019-02-14T00:39:13.082Z,11.37
2019-02-14T00:41:54.117Z,11.40
2019-02-14T00:44:35.014Z,11.87
2019-02-14T00:47:16.022Z,11.57
2019-02-14T00:49:56.675Z,11.10
2019-02-14T00:52:37.373Z,10.97
2019-02-14T00:55:18.138Z,11.47
2019-02-14T00:57:58.933Z,11.20
2019-02-14T01:00:39.773Z,11.67
2019-02-14T01:03:20.659Z,11.13
2019-02-14T01:06:01.247Z,11.20
2019-02-14T01:08:41.981Z,11.47
2019-02-14T01:11:22.334Z,11.30
2019-02-14T01:14:03.123Z,11.10
2019-02-14T01:16:44.109Z,10.87
2019-02-14T01:19:24.878Z,11.07
2019-02-14T01:22:05.544Z,10.23
2019-02-14T01:24:46.338Z,10.90
2019-02-14T01:27:26.749Z,10.83
2019-02-14T01:30:07.623Z,11.23
2019-02-14T01:32:48.531Z,10.13
2019-02-14T01:35:29.481Z,10.73
2019-02-14T01:38:10.425Z,11.57
2019-02-14T01:40:51.135Z,10.53
2019-02-14T01:43:32.073Z,10.73
2019-02-14T01:46:12.935Z,11.20
2019-02-14T01:48:53.770Z,10.47
2019-02-14T01:51:34.114Z,10.53
2019-02-14T01:54:14.526Z,11.83
2019-02-14T01:56:55.601Z,11.17
2019-02-14T01:59:36.073Z,10.97
2019-02-14T02:02:16.582Z,11.03
2019-02-14T02:04:57.314Z,10.90
2019-02-14T02:07:37.954Z,11.27
2019-02-14T02:10:18.660Z,11.00
2019-02-14T02:12:59.191Z,11.10
2019-02-14T02:15:39.605Z,11.43
2019-02-14T02:18:20.582Z,11.10
2019-02-14T02:21:01.278Z,10.83
2019-02-14T02:23:42.126Z,10.97
2019-02-14T02:26:22.848Z,11.13
2019-02-14T02:29:03.702Z,11.20
2019-02-14T02:31:44.496Z,10.57
2019-02-14T02:34:25.166Z,10.03
2019-02-14T02:37:05.874Z,11.90
2019-02-14T02:39:46.810Z,11.07
2019-02-14T02:42:28.125Z,11.50
2019-02-14T02:45:09.019Z,12.23
2019-02-14T02:47:49.620Z,11.87
2019-02-14T02:50:30.441Z,12.03
2019-02-14T02:53:11.391Z,12.13
2019-02-14T02:55:52.196Z,11.77
2019-02-14T02:58:32.967Z,11.43
2019-02-14T03:01:13.826Z,11.50
2019-02-14T03:03:54.466Z,10.87
2019-02-14T03:06:35.003Z,11.03
2019-02-14T03:09:16.043Z,11.30
2019-02-14T03:11:56.563Z,11.90
2019-02-14T03:14:37.239Z,11.33
2019-02-14T03:17:17.649Z,11.57
2019-02-14T03:19:58.196Z,11.27
2019-02-14T03:22:38.789Z,11.67
2019-02-14T03:25:19.579Z,11.20
2019-02-14T03:28:00.849Z,12.40
2019-02-14T03:30:41.740Z,12.60
2019-02-14T03:33:22.241Z,11.93
2019-02-14T03:36:03.162Z,11.80
2019-02-14T03:38:43.775Z,12.23
2019-02-14T03:41:12.337Z,11.90
2019-02-14T03:44:00.234Z,12.60
2019-02-14T03:46:48.148Z,12.20
2019-02-14T03:49:36.021Z,12.03
2019-02-14T03:52:23.848Z,12.37
2019-02-14T03:55:11.755Z,11.73
2019-02-14T03:57:59.672Z,12.63
2019-02-14T04:00:47.537Z,11.87
2019-02-14T04:03:35.481Z,12.10
2019-02-14T04:06:27.467Z,11.03
2019-02-14T04:09:12.593Z,11.13
2019-02-14T04:12:00.499Z,11.57
2019-02-14T04:14:41.072Z,11.57
2019-02-14T04:17:24.820Z,11.87
2019-02-14T04:20:05.742Z,11.33
2019-02-14T04:22:46.809Z,11.77
2019-02-14T04:25:28.021Z,11.23
2019-02-14T04:28:08.811Z,11.47
2019-02-14T04:30:49.610Z,12.60
2019-02-14T04:33:30.621Z,11.37
2019-02-14T04:36:11.559Z,12.03
2019-02-14T04:38:52.376Z,12.47
2019-02-14T04:41:33.018Z,12.53
2019-02-14T04:44:14.002Z,12.20
2019-02-14T04:46:55.008Z,12.70
2019-02-14T04:49:35.697Z,12.60
2019-02-14T04:52:16.493Z,13.03
2019-02-14T04:54:57.223Z,12.10
2019-02-14T04:57:38.070Z,11.63
2019-02-14T05:00:18.889Z,11.17
2019-02-14T05:02:59.507Z,11.73
2019-02-14T05:05:40.372Z,11.13
2019-02-14T05:08:21.694Z,11.77
2019-02-14T05:11:02.640Z,11.77
2019-02-14T05:13:43.715Z,10.63
2019-02-14T05:19:29.879Z,10.57
2019-02-14T05:22:10.447Z,10.90
2019-02-14T05:24:51.057Z,11.07
2019-02-14T05:27:31.765Z,10.87
2019-02-14T05:30:12.638Z,10.57
2019-02-14T05:32:53.671Z,11.07
2019-02-14T05:35:34.670Z,11.37
2019-02-14T05:38:15.569Z,11.60
2019-02-14T05:40:44.113Z,11.07
2019-02-14T05:43:32.014Z,10.73
2019-02-14T05:46:19.895Z,10.23
2019-02-14T05:49:07.801Z,10.43
2019-02-14T05:51:55.673Z,10.60
2019-02-14T05:54:43.507Z,10.90
2019-02-14T05:57:31.413Z,10.33
2019-02-14T06:03:29.829Z,10.73
2019-02-14T06:06:17.782Z,10.63
2019-02-14T06:09:06.356Z,10.83
2019-02-14T06:11:54.241Z,10.33
2019-02-14T06:14:35.751Z,10.73
2019-02-14T06:17:16.210Z,10.97
2019-02-14T06:19:57.250Z,10.83
2019-02-14T06:22:37.943Z,10.97
2019-02-14T06:25:18.537Z,11.27
2019-02-14T06:27:59.291Z,10.77
2019-02-14T06:30:39.845Z,10.83
2019-02-14T06:33:20.306Z,9.70
2019-02-14T06:36:00.649Z,10.70
2019-02-14T06:38:41.043Z,10.07
2019-02-14T06:41:21.712Z,10.50
2019-02-14T06:43:50.273Z,10.33
2019-02-14T06:46:38.166Z,10.50
2019-02-14T06:49:26.102Z,9.90
2019-02-14T06:52:14.037Z,10.90
2019-02-14T06:55:01.946Z,10.50
2019-02-14T06:57:49.824Z,10.90
2019-02-14T07:00:37.739Z,10.57
2019-02-14T07:03:25.689Z,10.43
2019-02-14T07:06:13.534Z,9.17
2019-02-14T07:09:01.436Z,10.10
2019-02-14T07:11:49.303Z,9.87
2019-02-14T07:14:37.210Z,10.07
2019-02-14T07:17:25.089Z,10.00
2019-02-14T07:23:44.022Z,10.13
2019-02-14T07:26:31.902Z,9.83
2019-02-14T07:29:19.734Z,10.00
2019-02-14T07:34:56.394Z,9.53
2019-02-14T07:37:44.271Z,10.93
2019-02-14T07:40:32.177Z,10.60
2019-02-14T07:43:20.060Z,9.90
2019-02-14T07:46:07.962Z,10.63
2019-02-14T07:51:44.639Z,9.60
2019-02-14T07:54:32.534Z,9.40
2019-02-14T08:00:09.221Z,9.83
2019-02-14T08:02:57.171Z,10.10
2019-02-14T08:05:45.090Z,9.27
2019-02-14T08:11:21.746Z,9.90
2019-02-14T08:14:09.626Z,10.27
2019-02-14T08:16:50.726Z,9.30
2019-02-14T08:19:31.454Z,10.10
2019-02-14T08:22:12.328Z,9.40
2019-02-14T08:24:52.936Z,9.90
2019-02-14T08:27:33.705Z,9.17
2019-02-14T08:30:14.647Z,8.80
2019-02-14T08:32:55.317Z,9.23
2019-02-14T08:38:44.561Z,9.23
2019-02-14T08:41:25.446Z,8.73
2019-02-14T08:44:06.218Z,8.47
2019-02-14T08:46:46.963Z,8.33
2019-02-14T08:49:27.581Z,8.13
2019-02-14T08:52:08.425Z,7.70
2019-02-14T08:54:49.206Z,8.07
2019-02-14T08:57:29.799Z,8.57
2019-02-14T09:00:10.128Z,8.10
2019-02-14T09:02:50.874Z,8.63
2019-02-14T09:05:31.259Z,7.63
2019-02-14T09:08:11.754Z,7.27
2019-02-14T09:10:52.270Z,8.27
2019-02-14T09:16:38.018Z,7.93
2019-02-14T09:19:18.645Z,8.17
2019-02-14T09:21:59.273Z,7.30
2019-02-14T09:24:39.750Z,7.40
2019-02-14T09:27:20.562Z,7.27
2019-02-14T09:30:01.058Z,7.20
2019-02-14T09:32:41.793Z,7.00
2019-02-14T09:35:22.693Z,7.23
2019-02-14T09:38:22.556Z,7.63
2019-02-14T09:44:08.789Z,7.43
2019-02-14T09:46:49.721Z,7.43
2019-02-14T09:49:30.576Z,7.77
2019-02-14T09:52:11.134Z,7.57
2019-02-14T09:54:51.747Z,7.27
2019-02-14T09:57:32.571Z,7.57
2019-02-14T10:00:13.205Z,7.33
2019-02-14T10:05:58.958Z,7.77
2019-02-14T10:11:44.625Z,6.87
2019-02-14T10:14:25.538Z,7.43
2019-02-14T10:20:14.475Z,7.33
2019-02-14T10:22:55.260Z,7.37
2019-02-14T10:25:36.029Z,7.27
2019-02-14T10:28:16.651Z,7.20
2019-02-14T10:30:57.129Z,7.13
2019-02-14T10:33:37.743Z,7.37
2019-02-14T10:36:18.380Z,6.90
2019-02-14T10:38:58.874Z,7.80
2019-02-14T10:41:39.694Z,7.37
2019-02-14T10:44:20.487Z,7.40
2019-02-14T10:47:00.977Z,7.67
2019-02-14T10:49:41.791Z,6.83
2019-02-14T10:52:22.158Z,6.93
2019-02-14T10:55:02.974Z,7.00
2019-02-14T10:57:43.679Z,7.53
2019-02-14T11:00:24.355Z,7.40
2019-02-14T11:03:04.710Z,7.00
2019-02-14T11:05:45.173Z,7.30
2019-02-14T11:08:31.746Z,6.43
2019-02-14T11:11:08.459Z,6.90
2019-02-14T11:13:49.254Z,7.50
2019-02-14T11:16:29.596Z,6.70
2019-02-14T11:19:10.416Z,7.00
2019-02-14T11:21:51.137Z,6.53
2019-02-14T11:24:31.890Z,5.90
2019-02-14T11:27:12.683Z,6.57
2019-02-14T11:29:53.596Z,5.90
2019-02-14T11:32:34.351Z,5.83
2019-02-14T11:35:15.053Z,5.80
2019-02-14T11:37:56.072Z,6.07
2019-02-14T11:40:37.006Z,5.53
2019-02-14T11:49:30.862Z,5.53
2019-02-14T11:52:11.874Z,6.13
2019-02-14T11:54:52.662Z,6.00
2019-02-14T11:57:33.454Z,5.17
2019-02-14T12:00:16.070Z,5.53
2019-02-14T12:02:56.916Z,5.60
2019-02-14T12:05:37.653Z,5.07
2019-02-14T12:08:18.207Z,5.90
2019-02-14T12:14:03.590Z,5.00
2019-02-14T12:16:43.966Z,5.40
2019-02-14T12:22:29.822Z,5.40
2019-02-14T12:25:10.507Z,5.57
2019-02-14T12:27:51.674Z,5.20
2019-02-14T12:30:32.611Z,4.70
2019-02-14T12:33:13.558Z,4.83
2019-02-14T12:39:08.573Z,4.50
2019-02-14T12:41:45.281Z,4.80
2019-02-14T12:44:25.878Z,4.93
2019-02-14T12:50:25.767Z,4.90
2019-02-14T12:53:06.182Z,4.17
2019-02-14T12:55:47.821Z,4.40
2019-02-14T12:58:28.475Z,3.90
2019-02-14T13:04:14.525Z,4.40
2019-02-14T13:06:54.870Z,4.40
2019-02-14T13:09:35.470Z,3.90
2019-02-14T13:12:16.349Z,3.60
2019-02-14T13:14:57.255Z,3.70
2019-02-14T13:17:38.091Z,3.80
2019-02-14T13:20:18.976Z,3.50
2019-02-14T13:22:59.707Z,3.40
2019-02-14T13:25:40.814Z,3.43
2019-02-14T13:28:21.290Z,3.30
2019-02-14T13:31:02.178Z,3.37
2019-02-14T13:33:43.069Z,3.63
2019-02-14T13:36:11.681Z,2.60
2019-02-14T13:38:59.567Z,2.47
2019-02-14T13:41:47.656Z,2.27
2019-02-14T13:44:35.508Z,2.60
2019-02-14T13:47:23.399Z,2.57
2019-02-14T13:50:11.849Z,2.47
2019-02-14T13:52:59.894Z,2.87
2019-02-14T13:55:47.793Z,2.53
2019-02-14T13:58:35.797Z,2.43
2019-02-14T14:01:23.694Z,2.67
2019-02-14T14:04:11.579Z,2.80
2019-02-14T14:06:59.571Z,2.70
2019-02-14T14:09:47.447Z,3.00
2019-02-14T14:12:35.406Z,2.60
2019-02-14T14:15:16.637Z,2.80
2019-02-14T14:17:57.907Z,2.83
2019-02-14T14:20:38.777Z,3.00
2019-02-14T14:23:19.942Z,3.20
2019-02-14T14:26:01.128Z,3.27
2019-02-14T14:28:41.809Z,3.27
2019-02-14T14:31:22.187Z,3.47
2019-02-14T14:34:03.611Z,3.30
2019-02-14T14:36:44.195Z,3.53
2019-02-14T14:39:25.083Z,3.80
2019-02-14T14:42:07.168Z,3.30
2019-02-14T14:44:48.138Z,3.70
2019-02-14T14:47:28.945Z,3.10
2019-02-14T14:53:29.316Z,3.17
2019-02-14T14:56:09.791Z,3.40
2019-02-14T14:58:50.565Z,3.00
2019-02-14T15:01:31.118Z,3.07
2019-02-14T15:04:11.620Z,3.27
2019-02-14T15:06:52.377Z,3.73
2019-02-14T15:09:32.745Z,3.67
2019-02-14T15:15:19.011Z,3.50
2019-02-14T15:17:59.589Z,3.73
2019-02-14T15:20:40.341Z,3.37
2019-02-14T15:23:20.889Z,3.53
2019-02-14T15:26:01.570Z,3.70
2019-02-14T15:28:42.224Z,3.60
2019-02-14T15:31:22.673Z,2.93
2019-02-14T15:34:03.637Z,3.00
2019-02-14T15:36:44.450Z,3.10
2019-02-14T15:39:25.485Z,3.00
2019-02-14T15:42:06.138Z,2.93
2019-02-14T15:44:46.979Z,2.77
2019-02-14T15:50:33.086Z,2.70
2019-02-14T15:53:14.072Z,2.90
2019-02-14T15:55:54.700Z,2.83
2019-02-14T15:58:35.334Z,2.47
2019-02-14T16:01:16.576Z,2.73
2019-02-14T16:03:58.603Z,3.23
2019-02-14T16:06:39.374Z,2.43
2019-02-14T16:09:20.315Z,2.90
2019-02-14T16:12:01.158Z,3.10
2019-02-14T16:14:42.834Z,3.20
2019-02-14T16:17:24.397Z,3.00
2019-02-14T16:20:04.908Z,2.87
2019-02-14T16:22:45.494Z,2.83
2019-02-14T16:25:28.187Z,3.00
2019-02-14T16:28:09.883Z,2.60
2019-02-14T16:30:52.854Z,3.43
2019-02-14T16:33:33.994Z,2.90
2019-02-14T16:39:33.921Z,2.83
2019-02-14T16:42:14.307Z,2.90
2019-02-14T16:48:03.514Z,2.77
2019-02-14T16:53:52.377Z,2.90
2019-02-14T16:56:33.206Z,2.90
2019-02-14T16:59:14.057Z,2.67
2019-02-14T17:01:54.739Z,2.60
2019-02-14T17:04:38.526Z,3.20
2019-02-14T17:07:18.923Z,3.17
2019-02-14T17:13:07.409Z,3.17
2019-02-14T17:15:47.949Z,3.50
2019-02-14T17:18:28.945Z,3.70
2019-02-14T17:21:09.683Z,3.50
2019-02-14T17:23:50.490Z,3.70
2019-02-14T17:26:30.939Z,3.73
2019-02-14T17:29:11.286Z,3.87
2019-02-14T17:31:51.735Z,3.47
2019-02-14T17:34:32.133Z,3.60
2019-02-14T17:37:12.885Z,3.40
2019-02-14T17:39:53.739Z,3.57
2019-02-14T17:42:34.543Z,3.67
2019-02-14T17:45:15.016Z,3.43
2019-02-14T17:47:55.738Z,3.90
2019-02-14T17:50:36.385Z,3.50
2019-02-14T17:56:35.858Z,3.57
2019-02-14T17:59:16.510Z,3.63
2019-02-14T18:04:39.206Z,3.90
2019-02-14T18:07:20.099Z,4.40
2019-02-14T18:10:00.953Z,4.13
2019-02-14T18:12:42.752Z,4.63
2019-02-14T18:18:28.330Z,4.87
2019-02-14T18:21:09.168Z,4.70
2019-02-14T18:23:50.037Z,3.93
2019-02-14T18:26:30.705Z,4.10
2019-02-14T18:29:11.118Z,4.30
2019-02-14T18:31:52.094Z,4.70
2019-02-14T18:34:32.446Z,4.77
2019-02-14T18:37:13.368Z,5.50
2019-02-14T18:39:54.369Z,5.40
2019-02-14T18:42:35.064Z,4.70
2019-02-14T18:45:16.102Z,4.83
2019-02-14T18:47:56.952Z,4.43
2019-02-14T18:50:56.829Z,4.23
2019-02-14T18:53:37.569Z,4.17
2019-02-14T18:56:18.090Z,4.20
2019-02-14T18:58:58.529Z,3.60
2019-02-14T19:01:39.229Z,3.33
2019-02-14T19:04:19.970Z,4.13
2019-02-14T19:07:00.647Z,3.90
2019-02-14T19:12:46.326Z,3.93
2019-02-14T19:15:26.973Z,4.00
2019-02-14T19:18:07.262Z,4.20
2019-02-14T19:20:47.849Z,4.23
2019-02-14T19:23:28.744Z,3.73
2019-02-14T19:26:09.365Z,3.77
2019-02-14T19:28:49.962Z,4.17
2019-02-14T19:34:35.975Z,4.37
2019-02-14T19:37:16.634Z,4.03
2019-02-14T19:39:45.189Z,4.20
2019-02-14T19:42:33.009Z,4.47
2019-02-14T19:45:20.920Z,3.83
2019-02-14T19:48:08.793Z,4.40
2019-02-14T19:50:56.714Z,4.00
2019-02-14T19:53:44.585Z,4.77
2019-02-14T19:56:32.484Z,3.93
2019-02-14T19:59:20.365Z,4.40
2019-02-14T20:02:08.817Z,4.47
2019-02-14T20:07:45.486Z,3.73
2019-02-14T20:10:33.402Z,4.30
2019-02-14T20:13:21.265Z,4.07
2019-02-14T20:16:02.014Z,4.20
2019-02-14T20:18:42.674Z,4.10
2019-02-14T20:21:23.557Z,4.00
2019-02-14T20:24:04.934Z,3.67
2019-02-14T20:26:46.521Z,3.77
2019-02-14T20:29:26.780Z,3.57
2019-02-14T20:32:07.369Z,3.27
2019-02-14T20:34:48.202Z,3.40
2019-02-14T20:40:37.390Z,4.20
2019-02-14T20:43:18.511Z,3.47
2019-02-14T20:45:59.118Z,4.20
2019-02-14T20:48:40.187Z,4.23
2019-02-14T20:51:20.942Z,4.10
2019-02-14T20:54:02.056Z,3.73
2019-02-14T20:56:42.964Z,4.23
2019-02-14T20:59:23.820Z,3.40
2019-02-14T21:02:04.355Z,3.57
2019-02-14T21:04:44.818Z,4.07
2019-02-14T21:07:26.033Z,3.60
2019-02-14T21:10:06.565Z,3.70
2019-02-14T21:12:46.902Z,3.50
2019-02-14T21:15:27.752Z,3.60
2019-02-14T21:18:08.741Z,3.90
2019-02-14T21:20:49.557Z,3.80
2019-02-14T21:23:30.590Z,3.50
2019-02-14T21:29:20.277Z,3.80
2019-02-14T21:35:09.704Z,3.50
2019-02-14T21:37:51.891Z,3.30
2019-02-14T21:40:32.897Z,3.67
2019-02-14T21:43:14.371Z,3.67
2019-02-14T21:49:14.955Z,3.10
2019-02-14T21:51:56.047Z,3.63
2019-02-14T21:54:36.799Z,3.47
2019-02-14T21:57:17.641Z,3.60
2019-02-14T21:59:58.141Z,3.30
2019-02-14T22:02:39.204Z,3.27
2019-02-14T22:05:25.129Z,3.50
2019-02-14T22:08:03.646Z,3.20
2019-02-14T22:10:44.787Z,3.53
2019-02-14T22:13:25.719Z,3.07
2019-02-14T22:16:06.744Z,3.33
2019-02-14T22:18:47.990Z,3.27
2019-02-14T22:21:28.949Z,3.30
2019-02-14T22:27:15.014Z,2.70
2019-02-14T22:29:55.741Z,2.80
2019-02-14T22:32:36.694Z,2.83
2019-02-14T22:35:17.520Z,2.70
2019-02-14T22:37:58.572Z,2.87
2019-02-14T22:40:39.034Z,2.90
2019-02-14T22:46:24.726Z,3.23
2019-02-14T22:49:05.853Z,2.70
2019-02-14T22:55:00.041Z,2.77
2019-02-14T23:01:08.349Z,3.10
2019-02-14T23:03:49.558Z,2.90
2019-02-14T23:06:30.478Z,3.27
2019-02-14T23:09:11.255Z,3.43
2019-02-14T23:15:10.787Z,3.30
2019-02-14T23:17:51.410Z,3.20
2019-02-14T23:20:32.278Z,2.87
2019-02-14T23:23:12.717Z,3.00
2019-02-14T23:29:12.053Z,2.60
2019-02-14T23:31:52.688Z,2.90
2019-02-14T23:34:33.769Z,2.90
2019-02-14T23:37:14.885Z,3.20
2019-02-14T23:39:55.719Z,2.80
2019-02-14T23:42:36.140Z,2.93
2019-02-14T23:45:17.330Z,3.00
2019-02-14T23:51:17.630Z,2.63
2019-02-14T23:53:57.971Z,2.40
2019-02-14T23:56:38.566Z,2.90
2019-02-14T23:59:19.354Z,2.70
